createdAt,value
2023-02-04T00:00:31.109Z,63.32
2023-02-04T00:03:19.328Z,63.68
2023-02-04T00:05:47.336Z,64.10
2023-02-04T00:08:15.461Z,63.87
2023-02-04T00:10:43.458Z,63.40
2023-02-04T00:13:11.506Z,63.54
2023-02-04T00:15:39.719Z,64.21
2023-02-04T00:18:09.498Z,65.10
2023-02-04T00:20:37.458Z,65.41
2023-02-04T00:23:05.644Z,65.51
2023-02-04T00:25:33.607Z,65.45
2023-02-04T00:28:01.813Z,65.80
2023-02-04T00:30:30.694Z,65.74
2023-02-04T00:32:59.068Z,65.82
2023-02-04T00:35:27.257Z,65.86
2023-02-04T00:37:56.723Z,66.59
2023-02-04T00:40:26.647Z,66.91
2023-02-04T00:42:54.811Z,67.31
2023-02-04T00:45:22.779Z,67.29
2023-02-04T00:47:51.155Z,68.16
2023-02-04T00:50:19.362Z,67.27
2023-02-04T00:52:47.503Z,68.07
2023-02-04T00:55:18.320Z,68.52
2023-02-04T00:57:49.303Z,68.49
2023-02-04T01:00:18.377Z,68.56
2023-02-04T01:02:46.552Z,68.70
2023-02-04T01:05:15.261Z,68.27
2023-02-04T01:07:43.316Z,68.82
2023-02-04T01:10:12.167Z,68.96
2023-02-04T01:12:40.479Z,68.70
2023-02-04T01:15:09.615Z,68.91
2023-02-04T01:17:38.496Z,68.46
2023-02-04T01:20:07.043Z,69.02
2023-02-04T01:22:35.219Z,68.79
2023-02-04T01:25:03.728Z,68.79
2023-02-04T01:27:42.343Z,68.97
2023-02-04T01:30:11.797Z,68.93
2023-02-04T01:32:40.004Z,69.04
2023-02-04T01:35:09.519Z,69.17
2023-02-04T01:37:37.492Z,68.92
2023-02-04T01:40:06.667Z,68.85
2023-02-04T01:42:35.960Z,68.78
2023-02-04T01:45:06.543Z,68.57
2023-02-04T01:47:36.509Z,68.79
2023-02-04T01:50:10.544Z,68.94
2023-02-04T01:52:40.062Z,68.89
2023-02-04T01:55:20.176Z,69.30
2023-02-04T01:57:50.970Z,69.16
2023-02-04T02:00:26.761Z,68.57
2023-02-04T02:02:55.877Z,68.81
2023-02-04T02:05:30.723Z,68.71
2023-02-04T02:08:02.350Z,68.83
2023-02-04T02:10:31.663Z,68.83
2023-02-04T02:13:00.330Z,68.22
2023-02-04T02:15:28.810Z,68.59
2023-02-04T02:17:57.091Z,68.79
2023-02-04T02:20:26.692Z,68.75
2023-02-04T02:23:15.462Z,68.10
2023-02-04T02:25:45.157Z,67.94
2023-02-04T02:28:17.201Z,68.12
2023-02-04T02:30:46.417Z,68.73
2023-02-04T02:33:15.924Z,68.71
2023-02-04T02:35:48.558Z,68.78
2023-02-04T02:38:19.230Z,68.50
2023-02-04T02:40:49.341Z,68.02
2023-02-04T02:43:21.732Z,68.70
2023-02-04T02:45:50.539Z,69.19
2023-02-04T02:48:19.235Z,69.26
2023-02-04T02:50:48.926Z,69.03
2023-02-04T02:53:20.477Z,68.43
2023-02-04T02:55:50.066Z,68.42
2023-02-04T02:58:29.195Z,68.09
2023-02-04T03:00:58.220Z,68.48
2023-02-04T03:03:33.617Z,68.33
2023-02-04T03:06:10.325Z,68.69
2023-02-04T03:08:39.798Z,68.22
2023-02-04T03:11:07.900Z,68.18
2023-02-04T03:13:37.273Z,68.19
2023-02-04T03:16:06.665Z,68.16
2023-02-04T03:18:36.917Z,67.86
2023-02-04T03:21:06.940Z,67.95
2023-02-04T03:23:36.932Z,68.21
2023-02-04T03:26:06.365Z,67.14
2023-02-04T03:28:34.512Z,67.47
2023-02-04T03:31:03.417Z,67.38
2023-02-04T03:33:31.796Z,67.42
2023-02-04T03:36:00.160Z,67.46
2023-02-04T03:38:28.380Z,67.29
2023-02-04T03:40:56.412Z,67.06
2023-02-04T03:43:24.472Z,67.25
2023-02-04T03:45:52.507Z,67.31
2023-02-04T03:48:20.925Z,67.39
2023-02-04T03:50:48.995Z,67.99
2023-02-04T03:53:17.105Z,67.81
2023-02-04T03:55:45.146Z,67.79
2023-02-04T03:58:15.615Z,68.12
2023-02-04T04:00:43.660Z,67.86
2023-02-04T04:03:11.758Z,67.72
2023-02-04T04:05:39.883Z,67.83
2023-02-04T04:08:07.847Z,68.01
2023-02-04T04:10:35.923Z,68.20
2023-02-04T04:13:04.094Z,66.82
2023-02-04T04:15:32.375Z,66.24
2023-02-04T04:18:00.749Z,66.66
2023-02-04T04:20:29.507Z,66.63
2023-02-04T04:22:57.605Z,66.78
2023-02-04T04:25:26.289Z,66.59
2023-02-04T04:27:54.508Z,66.76
2023-02-04T04:30:22.536Z,67.00
2023-02-04T04:32:50.582Z,67.19
2023-02-04T04:35:18.773Z,67.15
2023-02-04T04:37:48.097Z,66.17
2023-02-04T04:40:16.372Z,65.43
2023-02-04T04:42:44.418Z,65.92
2023-02-04T04:45:14.581Z,66.12
2023-02-04T04:47:42.939Z,66.20
2023-02-04T04:50:11.190Z,66.18
2023-02-04T04:52:39.771Z,66.35
2023-02-04T04:55:08.801Z,66.51
2023-02-04T04:57:36.837Z,66.38
2023-02-04T05:00:07.059Z,66.43
2023-02-04T05:02:35.128Z,66.50
2023-02-04T05:05:03.227Z,66.59
2023-02-04T05:07:31.272Z,66.70
2023-02-04T05:09:59.364Z,66.96
2023-02-04T05:12:27.425Z,67.32
2023-02-04T05:14:55.489Z,67.00
2023-02-04T05:17:23.471Z,66.32
2023-02-04T05:19:51.631Z,66.26
2023-02-04T05:22:19.704Z,66.61
2023-02-04T05:24:47.672Z,66.77
2023-02-04T05:27:15.751Z,66.58
2023-02-04T05:29:43.742Z,66.04
2023-02-04T05:32:11.785Z,66.12
2023-02-04T05:34:40.100Z,66.44
2023-02-04T05:37:08.131Z,65.75
2023-02-04T05:39:36.404Z,65.62
2023-02-04T05:42:04.386Z,65.79
2023-02-04T05:44:32.350Z,65.79
2023-02-04T05:47:00.550Z,65.82
2023-02-04T05:49:28.789Z,66.13
2023-02-04T05:51:56.875Z,66.42
2023-02-04T05:54:25.035Z,66.10
2023-02-04T05:56:53.252Z,65.93
2023-02-04T05:59:21.278Z,65.79
2023-02-04T06:01:49.349Z,65.70
2023-02-04T06:04:18.107Z,65.20
2023-02-04T06:06:46.205Z,65.67
2023-02-04T06:09:14.279Z,65.96
2023-02-04T06:11:42.268Z,66.24
2023-02-04T06:14:11.154Z,65.58
2023-02-04T06:16:39.533Z,65.77
2023-02-04T06:19:07.716Z,65.16
2023-02-04T06:21:35.759Z,65.69
2023-02-04T06:24:05.433Z,65.98
2023-02-04T06:26:33.639Z,65.44
2023-02-04T06:29:02.024Z,65.60
2023-02-04T06:31:30.383Z,65.26
2023-02-04T06:33:58.569Z,65.13
2023-02-04T06:36:26.763Z,64.38
2023-02-04T06:38:55.121Z,63.56
2023-02-04T06:41:23.334Z,63.35
2023-02-04T06:43:51.296Z,63.62
2023-02-04T06:46:19.491Z,63.92
2023-02-04T06:48:47.655Z,63.71
2023-02-04T06:51:15.783Z,63.71
2023-02-04T06:54:00.579Z,63.99
2023-02-04T06:56:29.978Z,63.46
2023-02-04T06:58:58.018Z,62.75
2023-02-04T07:01:26.127Z,62.23
2023-02-04T07:03:54.338Z,62.42
2023-02-04T07:06:26.678Z,62.40
2023-02-04T07:08:56.048Z,62.83
2023-02-04T07:11:24.013Z,61.88
2023-02-04T07:13:51.957Z,62.51
2023-02-04T07:16:19.917Z,62.92
2023-02-04T07:18:48.033Z,62.98
2023-02-04T07:21:15.983Z,61.76
2023-02-04T07:23:43.936Z,61.45
2023-02-04T07:26:11.854Z,62.45
2023-02-04T07:28:41.335Z,61.85
2023-02-04T07:31:09.433Z,61.00
2023-02-04T07:33:38.042Z,60.90
2023-02-04T07:36:06.150Z,60.53
2023-02-04T07:38:34.156Z,61.66
2023-02-04T07:41:02.131Z,61.96
2023-02-04T07:43:30.215Z,61.56
2023-02-04T07:45:58.181Z,61.32
2023-02-04T07:48:26.156Z,61.23
2023-02-04T07:50:54.296Z,60.78
2023-02-04T07:53:22.251Z,61.35
2023-02-04T07:55:50.235Z,61.83
2023-02-04T07:58:18.158Z,61.26
2023-02-04T08:00:46.021Z,60.25
2023-02-04T08:03:14.138Z,60.78
2023-02-04T08:05:42.148Z,60.41
2023-02-04T08:08:10.045Z,61.67
2023-02-04T08:10:37.904Z,61.25
2023-02-04T08:13:05.996Z,60.53
2023-02-04T08:15:34.411Z,60.32
2023-02-04T08:18:02.362Z,60.60
2023-02-04T08:20:30.969Z,60.49
2023-02-04T08:22:59.350Z,59.46
2023-02-04T08:25:29.009Z,59.63
2023-02-04T08:27:56.949Z,61.25
2023-02-04T08:30:24.905Z,63.22
2023-02-04T08:32:52.755Z,64.46
2023-02-04T08:35:20.617Z,63.23
2023-02-04T08:37:48.533Z,61.74
2023-02-04T08:40:16.453Z,62.52
2023-02-04T08:42:44.312Z,61.48
2023-02-04T08:54:22.896Z,58.68
2023-02-04T09:06:00.501Z,63.14
2023-02-04T09:08:28.501Z,63.24
2023-02-04T09:10:56.442Z,63.11
2023-02-04T09:13:24.496Z,62.12
2023-02-04T09:15:54.223Z,61.72
2023-02-04T09:18:22.832Z,60.40
2023-02-04T09:20:51.703Z,59.04
2023-02-04T09:23:20.053Z,58.81
2023-02-04T09:25:47.937Z,60.34
2023-02-04T09:28:17.323Z,62.02
2023-02-04T09:30:47.128Z,63.77
2023-02-04T09:33:19.540Z,64.27
2023-02-04T09:35:47.430Z,60.91
2023-02-04T09:38:15.544Z,60.82
2023-02-04T09:40:49.698Z,59.59
2023-02-04T09:43:22.606Z,56.60
2023-02-04T09:45:50.991Z,58.51
2023-02-04T09:48:19.725Z,59.46
2023-02-04T09:50:48.661Z,61.36
2023-02-04T09:58:17.483Z,57.42
2023-02-04T10:00:47.698Z,55.53
2023-02-04T10:07:47.948Z,57.90
2023-02-04T10:10:22.758Z,58.24
2023-02-04T10:12:52.903Z,58.49
2023-02-04T10:15:22.127Z,58.74
2023-02-04T10:17:54.620Z,60.19
2023-02-04T10:20:25.112Z,60.44
2023-02-04T10:22:55.115Z,61.51
2023-02-04T10:25:25.107Z,62.74
2023-02-04T10:28:00.730Z,58.41
2023-02-04T10:30:34.045Z,57.67
2023-02-04T10:33:13.969Z,57.59
2023-02-04T10:35:50.385Z,59.48
2023-02-04T10:38:18.934Z,59.64
2023-02-04T10:40:47.422Z,60.22
2023-02-04T10:43:21.915Z,61.79
2023-02-04T10:46:02.780Z,62.54
2023-02-04T10:48:39.199Z,62.72
2023-02-04T10:51:12.896Z,59.13
2023-02-04T10:53:59.571Z,55.69
2023-02-04T10:56:27.627Z,55.77
2023-02-04T10:58:55.487Z,57.92
2023-02-04T11:01:28.793Z,57.93
2023-02-04T11:03:57.025Z,58.29
2023-02-04T11:06:25.219Z,60.29
2023-02-04T11:08:55.354Z,62.36
2023-02-04T11:11:26.014Z,62.41
2023-02-04T11:13:55.172Z,61.33
2023-02-04T11:30:22.167Z,62.31
2023-02-04T11:33:24.435Z,64.58
2023-02-04T11:36:04.612Z,64.06
2023-02-04T11:38:33.932Z,60.17
2023-02-04T11:41:02.121Z,58.33
2023-02-04T11:43:34.758Z,56.16
2023-02-04T11:46:15.168Z,57.71
2023-02-04T11:48:44.026Z,59.46
2023-02-04T11:51:15.325Z,59.71
2023-02-04T11:53:43.729Z,60.42
2023-02-04T11:56:19.166Z,61.64
2023-02-04T11:58:51.004Z,62.98
2023-02-04T12:01:21.381Z,59.70
2023-02-04T12:04:00.946Z,57.43
2023-02-04T12:06:33.064Z,57.27
2023-02-04T12:09:16.074Z,58.47
2023-02-04T12:11:55.111Z,59.43
2023-02-04T12:14:29.445Z,60.29
2023-02-04T12:16:57.541Z,61.12
2023-02-04T12:19:27.552Z,61.33
2023-02-04T12:21:56.094Z,61.91
2023-02-04T12:24:24.199Z,62.12
2023-02-04T12:26:52.449Z,61.62
2023-02-04T12:29:20.457Z,62.18
2023-02-04T12:31:48.904Z,60.63
2023-02-04T12:34:17.628Z,58.35
2023-02-04T12:36:45.660Z,55.30
2023-02-04T12:39:13.662Z,55.22
2023-02-04T12:41:41.551Z,56.70
2023-02-04T12:44:09.492Z,57.80
2023-02-04T12:46:37.552Z,58.56
2023-02-04T12:49:07.022Z,60.03
2023-02-04T12:51:35.754Z,60.23
2023-02-04T12:54:03.793Z,60.33
2023-02-04T12:56:33.416Z,60.45
2023-02-04T12:59:01.493Z,60.87
2023-02-04T13:01:30.342Z,61.60
2023-02-04T13:03:58.779Z,62.26
2023-02-04T13:06:26.795Z,61.81
2023-02-04T13:08:54.946Z,60.41
2023-02-04T13:11:23.587Z,57.63
2023-02-04T13:13:51.953Z,57.99
2023-02-04T13:16:22.928Z,59.45
2023-02-04T13:18:51.504Z,59.46
2023-02-04T13:21:20.524Z,60.32
2023-02-04T13:23:48.586Z,60.44
2023-02-04T13:26:18.478Z,61.51
2023-02-04T13:28:46.582Z,61.13
2023-02-04T13:31:14.672Z,62.44
2023-02-04T13:33:43.390Z,63.75
2023-02-04T13:36:11.410Z,62.55
2023-02-04T13:38:39.465Z,61.39
2023-02-04T13:41:08.148Z,58.64
2023-02-04T13:43:36.694Z,57.89
2023-02-04T13:46:06.585Z,58.03
2023-02-04T13:48:36.709Z,58.31
2023-02-04T13:51:05.064Z,58.45
2023-02-04T13:53:33.082Z,59.11
2023-02-04T13:56:01.752Z,60.47
2023-02-04T13:58:31.444Z,61.24
2023-02-04T14:01:02.501Z,59.42
2023-02-04T14:03:33.446Z,58.46
2023-02-04T14:06:05.435Z,58.02
2023-02-04T14:08:37.482Z,56.93
2023-02-04T14:11:09.460Z,57.24
2023-02-04T14:13:40.448Z,57.14
2023-02-04T14:16:12.484Z,57.89
2023-02-04T14:18:44.977Z,57.10
2023-02-04T14:21:15.694Z,56.88
2023-02-04T14:23:46.509Z,55.96
2023-02-04T14:26:18.477Z,56.54
2023-02-04T14:28:49.957Z,57.11
2023-02-04T14:31:21.573Z,56.73
2023-02-04T14:33:53.467Z,57.57
2023-02-04T14:36:25.721Z,58.40
2023-02-04T14:38:57.479Z,57.24
2023-02-04T14:41:31.489Z,58.10
2023-02-04T14:44:04.474Z,58.16
2023-02-04T14:46:35.503Z,56.63
2023-02-04T14:49:06.497Z,56.75
2023-02-04T14:51:39.528Z,56.46
2023-02-04T14:54:11.182Z,57.22
2023-02-04T15:04:16.009Z,58.58
2023-02-04T15:06:46.229Z,58.73
2023-02-04T15:09:14.472Z,59.17
2023-02-04T15:11:43.788Z,59.72
2023-02-04T15:14:11.864Z,60.04
2023-02-04T15:16:40.890Z,59.85
2023-02-04T15:19:09.645Z,60.04
2023-02-04T15:21:37.642Z,59.96
2023-02-04T15:24:05.889Z,60.39
2023-02-04T15:26:33.848Z,59.85
2023-02-04T15:29:02.024Z,59.93
2023-02-04T15:31:30.061Z,59.94
2023-02-04T15:33:58.602Z,60.36
2023-02-04T15:36:27.075Z,60.26
2023-02-04T15:38:55.124Z,60.61
2023-02-04T15:41:23.718Z,60.87
2023-02-04T15:43:51.784Z,60.82
2023-02-04T15:46:19.883Z,61.03
2023-02-04T15:48:49.080Z,60.69
2023-02-04T15:51:17.532Z,60.83
2023-02-04T15:53:45.511Z,60.17
2023-02-04T15:56:13.880Z,60.64
2023-02-04T15:58:41.844Z,60.45
2023-02-04T16:01:10.072Z,61.06
2023-02-04T16:03:38.193Z,61.01
2023-02-04T16:06:06.673Z,60.92
2023-02-04T16:08:34.849Z,60.64
2023-02-04T16:11:04.312Z,60.91
2023-02-04T16:13:33.554Z,61.22
2023-02-04T16:16:01.592Z,61.51
2023-02-04T16:18:29.926Z,61.31
2023-02-04T16:20:58.075Z,60.99
2023-02-04T16:23:26.040Z,60.68
2023-02-04T16:25:54.521Z,61.30
2023-02-04T16:28:22.775Z,61.45
2023-02-04T16:30:50.973Z,60.97
2023-02-04T16:33:19.142Z,61.56
2023-02-04T16:36:04.116Z,62.03
2023-02-04T16:38:32.719Z,62.08
2023-02-04T16:41:01.082Z,64.53
2023-02-04T16:43:29.037Z,65.16
2023-02-04T16:45:57.028Z,62.02
2023-02-04T16:48:25.073Z,60.76
2023-02-04T16:50:53.505Z,57.94
2023-02-04T16:53:22.345Z,55.68
2023-02-04T16:55:50.305Z,55.44
2023-02-04T16:58:19.635Z,55.88
2023-02-04T17:00:48.803Z,56.58
2023-02-04T17:03:16.879Z,57.31
2023-02-04T17:05:45.061Z,57.93
2023-02-04T17:08:15.270Z,58.27
2023-02-04T17:11:02.417Z,59.01
2023-02-04T17:13:30.483Z,59.26
2023-02-04T17:16:01.272Z,60.39
2023-02-04T17:18:30.701Z,61.10
2023-02-04T17:20:59.689Z,61.04
2023-02-04T17:23:28.926Z,61.50
2023-02-04T17:25:57.066Z,61.62
2023-02-04T17:28:26.360Z,62.04
2023-02-04T17:30:54.772Z,66.05
2023-02-04T17:33:23.324Z,68.98
2023-02-04T17:35:51.323Z,63.21
2023-02-04T17:38:19.468Z,62.42
2023-02-04T17:40:47.847Z,61.72
2023-02-04T17:43:16.763Z,61.12
2023-02-04T17:45:44.809Z,59.08
2023-02-04T17:48:13.630Z,57.71
2023-02-04T17:50:43.533Z,57.52
2023-02-04T17:53:12.504Z,57.84
2023-02-04T17:55:40.502Z,59.02
2023-02-04T17:58:31.008Z,59.92
2023-02-04T18:00:59.848Z,60.94
2023-02-04T18:03:29.378Z,61.14
2023-02-04T18:05:57.859Z,61.47
2023-02-04T18:08:35.326Z,64.39
2023-02-04T18:11:03.277Z,66.20
2023-02-04T18:13:34.210Z,64.40
2023-02-04T18:16:22.605Z,62.60
2023-02-04T18:18:53.691Z,61.96
2023-02-04T18:21:31.372Z,61.44
2023-02-04T18:24:13.159Z,58.73
2023-02-04T18:26:52.702Z,57.23
2023-02-04T18:29:33.739Z,57.75
2023-02-04T18:32:18.739Z,57.77
2023-02-04T18:34:50.525Z,58.37
2023-02-04T18:37:29.527Z,59.00
2023-02-04T18:40:17.648Z,60.05
2023-02-04T18:42:47.244Z,60.18
2023-02-04T18:45:26.665Z,60.57
2023-02-04T18:48:19.293Z,63.05
2023-02-04T18:50:52.354Z,66.35
2023-02-04T18:53:28.056Z,64.04
2023-02-04T18:55:58.783Z,63.04
2023-02-04T18:58:34.979Z,62.88
2023-02-04T19:01:16.900Z,62.18
2023-02-04T19:04:02.326Z,61.59
2023-02-04T19:06:33.054Z,60.89
2023-02-04T19:09:06.751Z,59.80
2023-02-04T19:11:38.281Z,58.35
2023-02-04T19:14:19.265Z,56.56
2023-02-04T19:16:50.849Z,56.31
2023-02-04T19:19:40.862Z,56.41
2023-02-04T19:22:24.289Z,57.60
2023-02-04T19:25:00.138Z,58.31
2023-02-04T19:27:30.043Z,60.26
2023-02-04T19:30:02.678Z,61.25
2023-02-04T19:32:44.794Z,62.03
2023-02-04T19:35:19.902Z,64.20
2023-02-04T19:37:56.822Z,64.73
2023-02-04T19:40:24.780Z,63.45
2023-02-04T19:42:55.665Z,60.81
2023-02-04T19:45:26.017Z,58.85
2023-02-04T19:47:55.895Z,57.64
2023-02-04T19:50:32.334Z,57.63
2023-02-04T19:53:09.405Z,58.04
2023-02-04T19:55:51.112Z,59.21
2023-02-04T19:58:19.184Z,60.39
2023-02-04T20:01:02.041Z,60.58
2023-02-04T20:03:35.769Z,61.56
2023-02-04T20:06:10.154Z,61.74
2023-02-04T20:08:45.859Z,63.72
2023-02-04T20:11:28.989Z,65.72
2023-02-04T20:14:10.592Z,65.35
2023-02-04T20:16:40.824Z,64.70
2023-02-04T20:19:19.819Z,64.20
2023-02-04T20:22:17.185Z,62.06
2023-02-04T20:24:50.778Z,62.13
2023-02-04T20:27:36.461Z,61.08
2023-02-04T20:30:08.581Z,58.88
2023-02-04T20:32:50.140Z,57.12
2023-02-04T20:35:18.188Z,57.02
2023-02-04T20:37:52.551Z,58.33
2023-02-04T20:40:21.615Z,58.78
2023-02-04T20:42:53.056Z,59.35
2023-02-04T20:45:36.439Z,61.06
2023-02-04T20:48:13.429Z,63.78
2023-02-04T20:50:43.421Z,66.25
2023-02-04T20:53:11.798Z,66.60
2023-02-04T20:55:39.824Z,64.75
2023-02-04T20:58:07.677Z,63.70
2023-02-04T21:00:38.394Z,62.75
2023-02-04T21:03:23.121Z,61.65
2023-02-04T21:05:52.656Z,60.32
2023-02-04T21:12:59.334Z,57.08
2023-02-04T21:15:27.299Z,59.05
2023-02-04T21:17:55.193Z,59.30
2023-02-04T21:20:23.062Z,60.25
2023-02-04T21:22:50.959Z,60.12
2023-02-04T21:25:19.827Z,61.92
2023-02-04T21:27:48.299Z,63.61
2023-02-04T21:30:17.539Z,65.12
2023-02-04T21:32:45.426Z,64.17
2023-02-04T21:35:13.390Z,62.75
2023-02-04T21:46:50.902Z,60.98
2023-02-04T21:49:18.784Z,60.51
2023-02-04T21:51:46.854Z,60.29
2023-02-04T21:54:14.791Z,60.20
2023-02-04T21:56:42.690Z,59.97
2023-02-04T21:59:10.601Z,58.87
2023-02-04T22:01:38.486Z,56.93
2023-02-04T22:04:06.440Z,56.87
2023-02-04T22:06:34.329Z,57.50
2023-02-04T22:09:02.217Z,58.30
2023-02-04T22:11:30.381Z,59.08
2023-02-04T22:14:17.384Z,59.93
2023-02-04T22:16:46.595Z,59.97
2023-02-04T22:19:14.475Z,60.75
2023-02-04T22:21:42.376Z,61.39
2023-02-04T22:24:10.241Z,64.49
2023-02-04T22:26:38.153Z,66.53
2023-02-04T22:29:06.025Z,65.52
2023-02-04T22:31:33.981Z,64.69
2023-02-04T22:34:02.527Z,63.90
2023-02-04T22:36:30.612Z,62.74
2023-02-04T22:38:58.513Z,62.30
2023-02-04T22:41:26.391Z,61.89
2023-02-04T22:43:54.289Z,61.60
2023-02-04T22:46:22.250Z,61.16
2023-02-04T22:48:50.218Z,60.77
2023-02-04T22:51:18.077Z,60.32
2023-02-04T22:53:45.957Z,60.04
2023-02-04T22:56:14.941Z,58.87
2023-02-04T22:58:43.588Z,57.08
2023-02-04T23:01:11.491Z,56.80
2023-02-04T23:03:39.505Z,57.38
2023-02-04T23:06:07.502Z,58.07
2023-02-04T23:08:35.620Z,59.80
2023-02-04T23:11:03.512Z,59.93
2023-02-04T23:13:32.155Z,60.11
2023-02-04T23:16:00.317Z,61.20
2023-02-04T23:18:28.277Z,61.61
2023-02-04T23:20:56.458Z,64.58
2023-02-04T23:23:24.605Z,68.35
2023-02-04T23:25:52.529Z,65.53
2023-02-04T23:33:10.926Z,64.14
2023-02-04T23:35:38.856Z,62.59
2023-02-04T23:38:06.906Z,61.74
2023-02-04T23:40:34.922Z,61.23
2023-02-04T23:43:02.948Z,60.86
2023-02-04T23:45:31.152Z,60.70
2023-02-04T23:47:59.249Z,60.34
2023-02-04T23:50:27.201Z,60.04
2023-02-04T23:52:55.082Z,58.80
2023-02-04T23:55:22.972Z,56.77
2023-02-04T23:57:50.946Z,56.59
